Time;durP1;ratioP1;P1;durP2;ratioP2;P2;SDS_P1;SDS_P2;PMS_P1;PMS_P2;Temp;Humidity;BMP_temperature;BMP_pressure;BME280_temperature;BME280_humidity;BME280_pressure;Samples;Min_cycle;Max_cycle;Signal;HPM_P1;HPM_P2
2022/03/26 00:01:04;;;;;;;52.00;24.52;;;3.50;99.90;;;;;;5085405;28;20059;-68
2022/03/26 00:03:30;;;;;;;52.78;24.38;;;3.50;99.90;;;;;;5098663;28;20039;-68
2022/03/26 00:05:56;;;;;;;60.67;25.38;;;3.50;99.90;;;;;;5093716;28;20676;-68
2022/03/26 00:08:21;;;;;;;55.10;24.40;;;3.40;99.90;;;;;;5078813;28;20051;-68
2022/03/26 00:10:47;;;;;;;55.38;26.30;;;3.40;99.90;;;;;;5078562;28;20417;-68
2022/03/26 00:13:13;;;;;;;;;;;3.40;99.90;;;;;;5078963;28;20045;-68
2022/03/26 00:15:39;;;;;;;54.65;23.73;;;3.40;99.90;;;;;;5083110;28;19913;-68
2022/03/26 00:18:05;;;;;;;55.15;24.25;;;3.30;99.90;;;;;;5071286;28;20058;-68
2022/03/26 00:20:30;;;;;;;57.60;26.35;;;3.30;99.90;;;;;;5065939;28;20532;-68
2022/03/26 00:22:56;;;;;;;55.90;24.77;;;3.30;99.90;;;;;;5065713;28;20040;-68
2022/03/26 00:25:22;;;;;;;60.42;25.00;;;3.30;99.90;;;;;;5065234;28;20063;-68
2022/03/26 00:27:48;;;;;;;62.97;25.88;;;3.30;99.90;;;;;;5066168;28;20043;-68
2022/03/26 00:30:14;;;;;;;52.75;23.83;;;3.20;99.90;;;;;;5065607;28;20143;-69
2022/03/26 00:32:40;;;;;;;54.25;24.38;;;3.20;99.90;;;;;;5084039;28;20074;-69
2022/03/26 00:35:09;;;;;;;60.78;25.58;;;3.30;99.90;;;;;;5085507;28;20075;-68
2022/03/26 00:37:35;;;;;;;57.17;25.60;;;3.30;99.90;;;;;;5070063;28;20611;-68
2022/03/26 00:40:01;;;;;;;59.78;25.77;;;3.30;99.90;;;;;;5066086;28;20037;-68
2022/03/26 00:42:26;;;;;;;53.03;24.33;;;3.30;99.90;;;;;;5080968;28;20162;-68
2022/03/26 00:44:52;;;;;;;52.03;25.98;;;3.30;99.90;;;;;;5081969;28;20650;-68
2022/03/26 00:47:17;;;;;;;58.20;26.83;;;3.10;99.90;;;;;;5077799;28;20032;-68
2022/03/26 00:49:43;;;;;;;62.55;25.35;;;3.10;99.90;;;;;;5084793;28;20040;-68
2022/03/26 00:52:09;;;;;;;58.85;26.40;;;3.20;99.90;;;;;;5085573;28;20044;-68
2022/03/26 00:54:34;;;;;;;54.53;25.25;;;3.20;99.90;;;;;;5070924;28;20044;-68
2022/03/26 00:57:00;;;;;;;58.22;25.45;;;3.10;99.90;;;;;;5073827;28;20043;-68
2022/03/26 00:59:25;;;;;;;58.65;27.25;;;3.20;99.90;;;;;;5086667;28;20575;-68
2022/03/26 01:01:51;;;;;;;60.33;25.70;;;3.10;99.90;;;;;;5078330;28;20063;-68
2022/03/26 01:04:17;;;;;;;64.90;26.52;;;3.10;99.90;;;;;;5064993;28;20114;-68
2022/03/26 01:06:42;;;;;;;65.28;27.27;;;3.20;99.90;;;;;;5068128;28;20044;-68
2022/03/26 01:09:08;;;;;;;66.55;26.42;;;3.10;99.90;;;;;;5065214;28;20047;-69
2022/03/26 01:11:34;;;;;;;59.58;26.98;;;3.10;99.90;;;;;;5068212;28;20059;-68
2022/03/26 01:14:00;;;;;;;57.85;27.50;;;3.10;99.90;;;;;;5085255;28;20032;-68
2022/03/26 01:16:27;;;;;;;65.35;26.65;;;3.00;99.90;;;;;;5067239;28;20083;-68
2022/03/26 01:18:53;;;;;;;54.75;25.98;;;3.00;99.90;;;;;;5065463;28;20051;-69
2022/03/26 01:21:19;;;;;;;54.13;26.02;;;3.00;99.90;;;;;;5064613;28;20044;-69
2022/03/26 01:23:46;;;;;;;60.42;26.52;;;3.00;99.90;;;;;;5082562;28;20529;-69
2022/03/26 01:26:13;;;;;;;64.43;26.70;;;3.00;99.90;;;;;;5077310;28;20077;-68
2022/03/26 01:28:39;;;;;;;56.92;25.98;;;3.00;99.90;;;;;;5066832;28;20123;-68
2022/03/26 01:31:04;;;;;;;57.80;25.08;;;3.00;99.90;;;;;;5063794;28;20057;-69
2022/03/26 01:33:30;;;;;;;53.45;25.10;;;3.00;99.90;;;;;;5063399;28;20644;-70
2022/03/26 01:35:56;;;;;;;64.90;27.63;;;3.00;99.90;;;;;;5063811;28;20458;-69
2022/03/26 01:38:22;;;;;;;56.05;25.55;;;2.90;99.90;;;;;;5077286;28;20040;-70
2022/03/26 01:40:48;;;;;;;59.05;26.27;;;2.90;99.90;;;;;;5084800;28;20122;-70
2022/03/26 01:43:13;;;;;;;67.30;26.88;;;2.90;99.90;;;;;;5071886;28;20052;-70
2022/03/26 01:45:39;;;;;;;62.97;27.00;;;2.90;99.90;;;;;;5066335;28;20045;-70
2022/03/26 01:48:05;;;;;;;63.33;26.98;;;2.90;99.90;;;;;;5067134;28;20706;-70
2022/03/26 01:50:31;;;;;;;56.22;25.17;;;2.90;99.90;;;;;;5084124;28;20071;-70
2022/03/26 01:52:57;;;;;;;60.70;25.35;;;2.90;99.90;;;;;;5075713;28;20071;-70
2022/03/26 01:55:25;;;;;;;63.05;28.52;;;2.80;99.90;;;;;;5063459;28;20063;-70
2022/03/26 01:57:51;;;;;;;63.25;27.80;;;2.80;99.90;;;;;;5070912;28;20064;-70
2022/03/26 02:00:17;;;;;;;53.30;25.77;;;2.80;99.90;;;;;;5083823;28;20036;-70
2022/03/26 02:02:43;;;;;;;58.90;25.33;;;2.80;99.90;;;;;;5077828;28;20036;-70
2022/03/26 02:05:11;;;;;;;56.60;24.70;;;2.80;99.90;;;;;;5062771;28;20047;-70
2022/03/26 02:07:39;;;;;;;65.97;27.25;;;2.80;99.90;;;;;;5067286;28;20044;-69
2022/03/26 02:10:07;;;;;;;61.33;26.63;;;2.70;99.90;;;;;;5082863;28;20047;-70
2022/03/26 02:12:32;;;;;;;61.35;26.50;;;2.70;99.90;;;;;;5081183;28;20036;-70
2022/03/26 02:14:59;;;;;;;52.72;25.33;;;2.60;99.90;;;;;;5066428;28;20341;-70
2022/03/26 02:17:25;;;;;;;61.75;27.35;;;2.70;99.90;;;;;;5076610;28;20766;-70
2022/03/26 02:19:54;;;;;;;55.72;25.20;;;2.70;99.90;;;;;;5080392;28;20043;-70
2022/03/26 02:22:21;;;;;;;64.20;27.23;;;2.60;99.90;;;;;;5083192;28;20039;-69
2022/03/26 02:24:48;;;;;;;55.30;26.08;;;2.60;99.90;;;;;;5063096;28;20106;-70
2022/03/26 02:27:13;;;;;;;56.95;25.90;;;2.60;99.90;;;;;;5063529;28;20084;-70
2022/03/26 02:29:39;;;;;;;65.80;28.17;;;2.60;99.90;;;;;;5082412;28;20072;-70
2022/03/26 02:32:06;;;;;;;71.93;28.30;;;2.60;99.90;;;;;;5082974;28;20093;-70
2022/03/26 02:34:31;;;;;;;61.92;26.10;;;2.60;99.90;;;;;;5066445;28;20033;-70
2022/03/26 02:36:58;;;;;;;52.83;25.23;;;2.60;99.90;;;;;;5061901;28;20036;-70
2022/03/26 02:39:24;;;;;;;71.80;28.10;;;2.60;99.90;;;;;;5078564;28;20036;-70
2022/03/26 02:41:49;;;;;;;60.00;25.77;;;2.50;99.90;;;;;;5083001;28;20275;-69
2022/03/26 02:44:16;;;;;;;59.72;25.75;;;2.50;99.90;;;;;;5069818;28;20097;-70
2022/03/26 02:46:43;;;;;;;58.75;26.25;;;2.50;99.90;;;;;;5074291;28;20804;-70
2022/03/26 02:49:09;;;;;;;68.07;26.48;;;2.50;99.90;;;;;;5082092;28;20089;-69
2022/03/26 02:51:34;;;;;;;64.03;26.83;;;2.50;99.90;;;;;;5080963;28;20032;-70
2022/03/26 02:54:00;;;;;;;60.58;27.63;;;2.50;99.90;;;;;;5072980;28;20020;-70
2022/03/26 02:56:25;;;;;;;64.43;25.83;;;2.50;99.90;;;;;;5063002;28;20048;-70
2022/03/26 02:58:51;;;;;;;54.20;24.73;;;2.50;99.90;;;;;;5070998;28;20039;-70
2022/03/26 03:01:17;;;;;;;65.70;27.90;;;2.50;99.90;;;;;;5081533;28;20694;-70
2022/03/26 03:03:42;;;;;;;66.10;26.30;;;2.50;99.90;;;;;;5077457;28;20112;-70
2022/03/26 03:06:08;;;;;;;65.45;27.10;;;2.50;99.90;;;;;;5063060;28;20040;-70
2022/03/26 03:08:34;;;;;;;61.97;26.42;;;2.40;99.90;;;;;;5066732;28;20043;-69
2022/03/26 03:10:59;;;;;;;60.45;26.60;;;2.50;99.90;;;;;;5083524;28;20089;-70
2022/03/26 03:13:25;;;;;;;58.30;24.90;;;2.50;99.90;;;;;;5081152;28;20535;-70
2022/03/26 03:15:51;;;;;;;60.75;26.20;;;2.40;99.90;;;;;;5069648;28;20044;-70
2022/03/26 03:18:17;;;;;;;58.17;26.15;;;2.40;99.90;;;;;;5077585;28;20041;-70
2022/03/26 03:20:44;;;;;;;60.58;25.50;;;2.40;99.90;;;;;;5072466;28;20504;-70
2022/03/26 03:23:11;;;;;;;64.85;26.52;;;2.40;99.90;;;;;;5070900;28;20709;-70
2022/03/26 03:25:37;;;;;;;68.50;26.70;;;2.40;99.90;;;;;;5062876;28;20504;-70
2022/03/26 03:28:03;;;;;;;61.70;25.92;;;2.40;99.90;;;;;;5063038;28;20047;-70
2022/03/26 03:30:29;;;;;;;62.00;25.38;;;2.30;99.90;;;;;;5079068;28;20102;-70
2022/03/26 03:32:55;;;;;;;59.28;25.88;;;2.30;99.90;;;;;;5082666;28;20044;-69
2022/03/26 03:35:21;;;;;;;66.63;25.27;;;2.30;99.90;;;;;;5081444;28;20036;-70
2022/03/26 03:37:46;;;;;;;70.35;27.08;;;2.30;99.90;;;;;;5075295;28;20048;-70
2022/03/26 03:40:13;;;;;;;62.95;26.42;;;2.30;99.90;;;;;;5074839;28;20069;-70
2022/03/26 03:42:39;;;;;;;61.75;25.90;;;2.30;99.90;;;;;;5083101;28;20104;-70
2022/03/26 03:45:05;;;;;;;60.38;26.15;;;2.30;99.90;;;;;;5078749;28;20222;-70
2022/03/26 03:47:31;;;;;;;60.55;26.48;;;2.30;99.90;;;;;;5067359;28;20101;-69
2022/03/26 03:49:56;;;;;;;59.53;25.80;;;2.30;99.90;;;;;;5071776;28;20048;-70
2022/03/26 03:52:22;;;;;;;56.00;26.55;;;2.30;99.90;;;;;;5063723;28;20039;-70
2022/03/26 03:54:48;;;;;;;53.53;24.52;;;2.20;99.90;;;;;;5066047;28;20045;-69
2022/03/26 03:57:13;;;;;;;65.20;27.83;;;2.20;99.90;;;;;;5067059;28;20093;-69
2022/03/26 03:59:41;;;;;;;60.42;25.27;;;2.20;99.90;;;;;;5072341;28;20040;-70
2022/03/26 04:02:10;;;;;;;57.85;25.52;;;2.20;99.90;;;;;;5086041;28;20032;-70
2022/03/26 04:04:40;;;;;;;61.38;26.00;;;2.20;99.90;;;;;;5081801;28;20517;-70
2022/03/26 04:07:06;;;;;;;58.80;27.23;;;2.20;99.90;;;;;;5066332;28;20207;-70
2022/03/26 04:09:32;;;;;;;59.15;24.80;;;2.20;99.90;;;;;;5069896;28;20040;-70
2022/03/26 04:11:57;;;;;;;55.75;25.42;;;2.20;99.90;;;;;;5086202;28;20106;-70
2022/03/26 04:14:23;;;;;;;60.47;26.80;;;2.10;99.90;;;;;;5085629;28;20096;-70
2022/03/26 04:16:48;;;;;;;68.68;24.08;;;2.10;99.90;;;;;;5077733;28;20059;-70
2022/03/26 04:19:14;;;;;;;55.58;24.98;;;2.10;99.90;;;;;;5074285;28;20040;-70
2022/03/26 04:21:39;;;;;;;55.92;24.50;;;2.10;99.90;;;;;;5086632;28;20652;-69
2022/03/26 04:24:05;;;;;;;62.40;24.38;;;2.10;99.90;;;;;;5087021;28;20036;-70
2022/03/26 04:26:31;;;;;;;54.10;24.70;;;2.10;99.90;;;;;;5068683;28;20040;-70
2022/03/26 04:28:57;;;;;;;59.70;25.35;;;2.10;99.90;;;;;;5066435;28;20143;-69
2022/03/26 04:31:22;;;;;;;56.65;24.92;;;2.10;99.90;;;;;;5080846;28;20067;-70
2022/03/26 04:33:48;;;;;;;58.92;25.15;;;2.00;99.90;;;;;;5085998;28;20694;-70
2022/03/26 04:36:14;;;;;;;52.78;22.67;;;1.90;99.90;;;;;;5072204;28;20044;-70
2022/03/26 04:38:39;;;;;;;55.45;24.80;;;2.00;99.90;;;;;;5066495;28;20040;-70
2022/03/26 04:41:05;;;;;;;49.38;23.25;;;2.00;99.90;;;;;;5077625;28;20035;-70
2022/03/26 04:43:31;;;;;;;59.30;25.92;;;2.00;99.90;;;;;;5085396;28;20044;-70
2022/03/26 04:45:56;;;;;;;64.85;26.65;;;2.00;99.90;;;;;;5071387;28;20047;-70
2022/03/26 04:48:22;;;;;;;58.38;24.77;;;2.00;99.90;;;;;;5072933;28;20033;-70
2022/03/26 04:50:47;;;;;;;60.97;26.05;;;2.00;99.90;;;;;;5074345;28;20032;-70
2022/03/26 04:53:13;;;;;;;57.85;25.75;;;1.90;99.90;;;;;;5085462;28;20069;-69
2022/03/26 04:55:39;;;;;;;60.42;24.98;;;1.90;99.90;;;;;;5079682;28;20076;-69
2022/03/26 04:58:05;;;;;;;55.28;25.02;;;2.00;99.90;;;;;;5065880;28;20110;-69
2022/03/26 05:00:30;;;;;;;54.67;24.52;;;1.90;99.90;;;;;;5070716;28;20036;-69
2022/03/26 05:02:56;;;;;;;62.88;25.98;;;2.00;99.90;;;;;;5086008;28;20055;-69
2022/03/26 05:05:21;;;;;;;60.88;25.70;;;2.00;99.90;;;;;;5082187;28;20126;-69
2022/03/26 05:07:47;;;;;;;61.28;25.92;;;1.90;99.90;;;;;;5065590;28;20043;-70
2022/03/26 05:10:24;;;;;;;52.03;23.58;;;1.90;99.90;;;;;;5065671;28;20363;-69
2022/03/26 05:12:50;;;;;;;;;;;1.90;99.90;;;;;;5085995;28;20043;-70
2022/03/26 05:15:18;;;;;;;57.88;23.40;;;2.00;99.90;;;;;;5078097;28;20013;-70
2022/03/26 05:17:44;;;;;;;61.85;25.25;;;2.00;99.90;;;;;;5073644;28;20109;-70
2022/03/26 05:20:12;;;;;;;53.65;24.65;;;2.00;99.90;;;;;;5062926;28;20466;-70
2022/03/26 05:22:39;;;;;;;55.78;24.10;;;2.00;99.90;;;;;;5082387;28;20075;-70
2022/03/26 05:25:05;;;;;;;68.28;27.60;;;2.00;99.90;;;;;;5083555;28;20112;-70
2022/03/26 05:27:31;;;;;;;52.38;24.60;;;2.00;99.90;;;;;;5068478;28;20102;-69
2022/03/26 05:29:56;;;;;;;62.55;25.30;;;2.10;99.90;;;;;;5076807;28;20028;-70
2022/03/26 05:32:22;;;;;;;54.45;24.80;;;2.10;99.90;;;;;;5073913;28;20040;-70
2022/03/26 05:34:48;;;;;;;57.75;24.52;;;2.10;99.90;;;;;;5070945;28;20531;-70
2022/03/26 05:37:13;;;;;;;59.63;25.02;;;2.10;99.90;;;;;;5077995;28;20062;-70
2022/03/26 05:39:39;;;;;;;59.80;26.75;;;2.10;99.90;;;;;;5084784;28;20078;-70
2022/03/26 05:42:05;;;;;;;61.53;26.50;;;2.10;99.90;;;;;;5071685;28;20067;-70
2022/03/26 05:44:31;;;;;;;58.03;23.10;;;2.10;99.90;;;;;;5065256;28;20040;-70
2022/03/26 05:46:57;;;;;;;57.40;23.58;;;2.20;99.90;;;;;;5076060;28;20051;-68
2022/03/26 05:49:24;;;;;;;53.00;23.48;;;2.30;99.90;;;;;;5071040;28;20046;-69
2022/03/26 05:51:50;;;;;;;59.75;25.75;;;2.30;99.90;;;;;;5076684;28;20051;-68
2022/03/26 05:54:16;;;;;;;57.80;24.25;;;2.50;99.90;;;;;;5083035;28;20277;-68
2022/03/26 05:56:51;;;;;;;61.45;25.92;;;2.90;99.90;;;;;;5074568;28;20623;-69
2022/03/26 05:59:23;;;;;;;48.15;23.60;;;3.20;99.90;;;;;;5070896;28;20032;-68
2022/03/26 06:01:50;;;;;;;48.10;21.45;;;3.70;99.90;;;;;;5075590;28;20056;-68
2022/03/26 06:04:16;;;;;;;53.63;22.13;;;4.40;99.90;;;;;;5069492;28;20036;-68
2022/03/26 06:06:43;;;;;;;44.55;22.23;;;5.00;99.90;;;;;;5069948;28;20067;-68
2022/03/26 06:09:09;;;;;;;55.08;23.58;;;5.40;99.90;;;;;;5071653;28;20078;-68
2022/03/26 06:11:35;;;;;;;47.13;21.63;;;5.50;99.90;;;;;;5067466;28;20036;-69
2022/03/26 06:14:01;;;;;;;;;;;5.60;99.90;;;;;;5069270;28;20040;-68
2022/03/26 06:16:26;;;;;;;45.28;20.13;;;5.70;99.90;;;;;;5070057;28;19917;-69
2022/03/26 06:18:52;;;;;;;;;;;5.80;99.90;;;;;;5068758;28;20036;-68
2022/03/26 06:21:18;;;;;;;50.70;23.08;;;5.90;99.90;;;;;;5067050;28;19916;-69
2022/03/26 06:23:43;;;;;;;;;;;6.00;99.90;;;;;;5072740;28;20127;-66
2022/03/26 06:26:10;;;;;;;47.67;21.33;;;6.40;99.90;;;;;;5066829;28;20436;-67
2022/03/26 06:28:36;;;;;;;51.88;22.30;;;7.00;99.90;;;;;;5065432;28;20037;-67
2022/03/26 06:31:02;;;;;;;;;;;7.40;99.90;;;;;;5062130;28;20377;-67
2022/03/26 06:33:28;;;;;;;50.83;22.35;;;7.20;99.90;;;;;;5076390;28;19939;-67
2022/03/26 06:36:03;;;;;;;;;;;6.80;99.90;;;;;;5082643;28;20043;-68
2022/03/26 06:38:38;;;;;;;44.60;21.63;;;6.70;99.90;;;;;;5066333;28;19922;-68
2022/03/26 06:41:12;;;;;;;43.72;21.75;;;6.80;99.90;;;;;;5061895;28;20083;-67
2022/03/26 06:43:42;;;;;;;41.80;22.02;;;7.40;99.90;;;;;;5077203;28;20047;-68
2022/03/26 06:46:13;;;;;;;41.35;20.52;;;7.60;99.90;;;;;;5074604;28;20036;-68
2022/03/26 06:48:42;;;;;;;50.13;22.25;;;8.00;99.90;;;;;;5068977;28;20776;-69
2022/03/26 06:51:08;;;;;;;41.70;20.40;;;8.20;99.90;;;;;;5065715;28;20040;-67
2022/03/26 06:53:37;;;;;;;43.72;22.23;;;8.70;99.90;;;;;;5078700;28;20487;-68
2022/03/26 06:56:07;;;;;;;37.10;20.48;;;9.00;99.90;;;;;;5084347;28;20198;-67
2022/03/26 06:58:36;;;;;;;40.50;20.20;;;9.00;99.90;;;;;;5078513;28;20052;-67
2022/03/26 07:01:08;;;;;;;45.28;22.77;;;9.00;99.90;;;;;;5086652;28;20468;-69
2022/03/26 07:03:38;;;;;;;41.72;20.38;;;8.70;99.90;;;;;;5073625;28;20035;-69
2022/03/26 07:06:10;;;;;;;47.83;20.75;;;8.70;99.90;;;;;;5102701;28;20036;-68
2022/03/26 07:08:35;;;;;;;43.33;21.75;;;8.70;99.90;;;;;;5090512;28;20032;-69
2022/03/26 07:11:03;;;;;;;;;;;9.20;99.90;;;;;;5093644;28;20039;-69
2022/03/26 07:13:35;;;;;;;45.83;20.65;;;9.50;99.90;;;;;;5091457;28;19916;-69
2022/03/26 07:16:01;;;;;;;40.83;20.08;;;9.60;99.90;;;;;;5077387;28;20059;-65
2022/03/26 07:18:29;;;;;;;;;;;9.80;99.90;;;;;;5081662;28;20044;-67
2022/03/26 07:20:59;;;;;;;41.60;20.08;;;10.10;99.90;;;;;;5084648;28;19916;-67
2022/03/26 07:23:27;;;;;;;40.85;20.45;;;10.40;99.90;;;;;;5075845;28;20043;-68
2022/03/26 07:25:54;;;;;;;42.00;20.83;;;10.40;99.80;;;;;;5089903;28;20044;-68
2022/03/26 07:28:22;;;;;;;36.75;19.63;;;10.60;99.90;;;;;;5095550;28;20476;-67
2022/03/26 07:30:54;;;;;;;45.03;20.70;;;10.70;99.10;;;;;;5088414;28;20096;-67
2022/03/26 07:33:19;;;;;;;39.45;20.35;;;10.70;99.00;;;;;;5088588;28;20035;-68
2022/03/26 07:35:48;;;;;;;;;;;11.10;99.50;;;;;;5092358;27;20043;-67
2022/03/26 07:38:21;;;;;;;45.15;20.63;;;11.30;98.40;;;;;;5090393;28;19927;-68
2022/03/26 07:40:49;;;;;;;37.78;19.23;;;11.40;98.10;;;;;;5085203;28;20120;-68
2022/03/26 07:43:15;;;;;;;41.65;20.92;;;11.40;97.90;;;;;;5100381;28;20036;-68
2022/03/26 07:45:41;;;;;;;;;;;11.40;98.20;;;;;;5079334;28;20507;-69
2022/03/26 07:48:07;;;;;;;39.90;18.00;;;11.50;98.00;;;;;;5095927;28;20252;-68
2022/03/26 07:50:35;;;;;;;36.47;18.65;;;12.10;98.10;;;;;;5092936;28;20043;-68
2022/03/26 07:53:13;;;;;;;;;;;;;;;;;;;;;
2022/03/26 07:55:41;;;;;;;39.78;18.50;;;12.30;96.70;;;;;;5088685;28;20432;-68
2022/03/26 07:58:12;;;;;;;35.03;17.60;;;12.30;96.50;;;;;;5092794;28;20081;-69
2022/03/26 08:00:41;;;;;;;35.78;17.42;;;12.70;97.20;;;;;;5083783;28;20044;-69
2022/03/26 08:03:06;;;;;;;;;;;13.10;96.60;;;;;;5088821;28;20051;-68
2022/03/26 08:05:32;;;;;;;35.22;17.73;;;13.70;95.80;;;;;;5074252;28;19927;-68
2022/03/26 08:07:57;;;;;;;;;;;14.10;94.80;;;;;;5076980;28;20472;-68
2022/03/26 08:10:23;;;;;;;33.95;15.40;;;14.60;93.80;;;;;;5079871;28;19920;-68
2022/03/26 08:12:48;;;;;;;;;;;15.40;93.30;;;;;;5074282;28;21363;-68
2022/03/26 08:15:14;;;;;;;25.67;13.45;;;16.30;91.50;;;;;;5071059;28;19942;-68
2022/03/26 08:17:40;;;;;;;;;;;16.90;88.50;;;;;;5074332;28;20503;-68
2022/03/26 08:20:07;;;;;;;26.70;14.45;;;17.40;80.40;;;;;;5073841;28;19987;-68
2022/03/26 08:22:34;;;;;;;30.83;16.10;;;17.70;79.30;;;;;;5075592;28;20060;-68
2022/03/26 08:25:00;;;;;;;36.20;15.30;;;18.10;74.80;;;;;;5073206;28;20086;-68
2022/03/26 08:27:26;;;;;;;34.33;17.45;;;18.20;72.90;;;;;;5074353;28;20093;-68
2022/03/26 08:29:52;;;;;;;;;;;18.40;71.40;;;;;;5076866;28;20063;-70
2022/03/26 08:32:18;;;;;;;44.50;18.23;;;18.40;69.20;;;;;;5075158;28;19919;-68
2022/03/26 08:34:44;;;;;;;;;;;17.90;67.20;;;;;;5074051;28;20075;-68
2022/03/26 08:37:10;;;;;;;35.15;17.60;;;17.20;67.60;;;;;;5076513;28;19931;-67
2022/03/26 08:39:36;;;;;;;39.30;18.92;;;16.40;71.90;;;;;;5075552;28;20555;-68
2022/03/26 08:42:03;;;;;;;;;;;15.20;75.80;;;;;;5071595;28;20116;-68
2022/03/26 08:44:28;;;;;;;39.70;19.85;;;14.40;75.50;;;;;;5071735;28;20015;-68
2022/03/26 08:46:54;;;;;;;47.85;21.25;;;13.90;77.50;;;;;;5072178;28;20123;-69
2022/03/26 08:49:20;;;;;;;;;;;13.50;77.60;;;;;;5074298;28;20032;-68
2022/03/26 08:51:45;;;;;;;44.22;21.25;;;13.20;78.80;;;;;;5072301;28;19920;-68
2022/03/26 08:54:11;;;;;;;;;;;13.00;75.80;;;;;;5076207;28;20037;-68
2022/03/26 08:56:37;;;;;;;45.50;20.33;;;12.90;78.40;;;;;;5075454;28;19920;-68
2022/03/26 08:59:02;;;;;;;;;;;12.80;77.90;;;;;;5076904;28;20107;-68
2022/03/26 09:01:28;;;;;;;44.20;19.40;;;12.90;81.60;;;;;;5074290;28;20493;-68
2022/03/26 09:03:53;;;;;;;;;;;13.00;79.50;;;;;;5076442;28;20039;-69
2022/03/26 09:06:19;;;;;;;37.33;16.35;;;12.90;80.30;;;;;;5071119;28;20293;-67
2022/03/26 09:08:46;;;;;;;;;;;12.90;81.10;;;;;;5073200;28;20047;-69
2022/03/26 09:11:12;;;;;;;34.33;16.40;;;12.90;80.90;;;;;;5080291;28;20343;-67
2022/03/26 09:13:38;;;;;;;27.83;13.68;;;12.90;80.80;;;;;;5074064;28;20122;-67
2022/03/26 09:16:04;;;;;;;;;;;12.90;84.90;;;;;;5071101;28;20063;-66
2022/03/26 09:18:30;;;;;;;25.90;12.85;;;13.00;82.20;;;;;;5069177;28;20356;-67
2022/03/26 09:20:55;;;;;;;;;;;13.00;82.60;;;;;;5072496;28;20063;-68
2022/03/26 09:23:21;;;;;;;22.10;10.18;;;13.00;83.90;;;;;;5073170;28;19981;-67
2022/03/26 09:25:47;;;;;;;;;;;13.10;83.30;;;;;;5074687;28;20121;-69
2022/03/26 09:28:13;;;;;;;20.77;10.32;;;13.00;85.60;;;;;;5066721;28;19920;-69
2022/03/26 09:30:38;;;;;;;;;;;13.20;80.40;;;;;;5079814;28;20170;-67
2022/03/26 09:33:05;;;;;;;18.88;9.80;;;13.10;85.40;;;;;;5073884;28;19916;-68
2022/03/26 09:35:31;;;;;;;19.75;10.10;;;13.10;84.80;;;;;;5078111;28;20717;-67
2022/03/26 09:37:57;;;;;;;;;;;13.10;83.70;;;;;;5071373;28;20040;-67
2022/03/26 09:40:24;;;;;;;26.30;10.90;;;13.20;85.50;;;;;;5067375;28;19924;-68
2022/03/26 09:42:50;;;;;;;22.48;10.88;;;13.20;85.10;;;;;;5082472;28;20040;-69
2022/03/26 09:45:17;;;;;;;20.52;11.32;;;13.20;85.20;;;;;;5077882;28;20118;-68
2022/03/26 09:47:42;;;;;;;20.23;10.45;;;13.30;82.60;;;;;;5082277;28;20124;-68
2022/03/26 09:50:09;;;;;;;;;;;13.30;82.30;;;;;;5065309;28;20653;-67
2022/03/26 09:52:35;;;;;;;24.60;9.90;;;13.20;84.60;;;;;;5083969;28;19919;-67
2022/03/26 09:55:03;;;;;;;21.00;8.40;;;13.30;83.20;;;;;;5080404;28;20051;-67
2022/03/26 09:57:29;;;;;;;23.58;9.63;;;13.40;79.60;;;;;;5063321;28;20094;-68
2022/03/26 09:59:56;;;;;;;22.92;8.77;;;13.40;78.50;;;;;;5061264;28;20527;-67
2022/03/26 10:02:22;;;;;;;19.55;9.23;;;13.40;77.50;;;;;;5064073;28;20090;-67
2022/03/26 10:04:47;;;;;;;;;;;13.50;78.50;;;;;;5069199;28;20040;-69
2022/03/26 10:07:13;;;;;;;16.08;7.93;;;13.50;80.80;;;;;;5067953;28;20026;-69
2022/03/26 10:09:44;;;;;;;;;;;13.50;76.80;;;;;;5072374;28;20044;-69
2022/03/26 10:12:19;;;;;;;17.30;8.52;;;13.60;81.50;;;;;;5062929;28;19920;-68
2022/03/26 10:15:12;;;;;;;14.30;8.47;;;13.70;78.70;;;;;;5064083;28;20082;-68
2022/03/26 10:17:37;;;;;;;20.58;10.35;;;13.60;82.70;;;;;;5063900;28;20109;-68
2022/03/26 10:20:13;;;;;;;;;;;13.70;84.50;;;;;;5065477;28;20128;-69
2022/03/26 10:22:41;;;;;;;21.35;10.40;;;13.60;85.90;;;;;;5083931;28;19969;-68
2022/03/26 10:25:09;;;;;;;23.05;10.70;;;13.60;87.20;;;;;;5083315;28;20158;-69
2022/03/26 10:27:42;;;;;;;17.55;8.60;;;13.60;88.60;;;;;;5065932;28;20089;-68
2022/03/26 10:30:13;;;;;;;18.58;8.57;;;13.70;87.60;;;;;;5064516;28;20745;-69
2022/03/26 10:32:43;;;;;;;16.95;8.68;;;13.70;87.40;;;;;;5082462;28;20040;-69
2022/03/26 10:35:34;;;;;;;18.58;10.00;;;13.60;87.80;;;;;;5080578;28;20044;-69
2022/03/26 10:38:03;;;;;;;20.58;9.82;;;13.50;90.10;;;;;;5057815;28;20052;-68
2022/03/26 10:40:33;;;;;;;24.23;11.18;;;13.40;89.80;;;;;;5060536;28;20561;-69
2022/03/26 10:43:08;;;;;;;19.50;9.43;;;13.60;89.20;;;;;;5076872;28;20040;-69
2022/03/26 10:45:50;;;;;;;23.90;10.88;;;13.80;89.40;;;;;;5076824;28;20040;-69
2022/03/26 10:48:22;;;;;;;18.38;9.90;;;13.80;87.50;;;;;;5060863;28;20036;-69
2022/03/26 10:50:58;;;;;;;19.58;9.50;;;13.90;88.70;;;;;;5062201;28;20048;-69
2022/03/26 10:53:34;;;;;;;17.03;7.47;;;14.10;88.30;;;;;;5081612;28;20071;-69
2022/03/26 10:56:03;;;;;;;13.45;8.00;;;14.10;86.20;;;;;;5062021;28;20559;-68
2022/03/26 10:58:31;;;;;;;15.70;7.57;;;14.20;86.50;;;;;;5083175;28;20062;-69
2022/03/26 11:00:57;;;;;;;19.17;9.35;;;14.20;85.20;;;;;;5082969;28;20097;-69
2022/03/26 11:03:23;;;;;;;18.55;8.38;;;14.00;87.90;;;;;;5062904;28;20532;-69
2022/03/26 11:05:53;;;;;;;21.60;9.32;;;14.00;85.80;;;;;;5060210;28;20120;-69
2022/03/26 11:08:20;;;;;;;20.42;10.23;;;14.00;85.80;;;;;;5080694;28;20076;-69
2022/03/26 11:10:46;;;;;;;12.93;8.20;;;14.00;85.20;;;;;;5080896;28;20052;-69
2022/03/26 11:13:12;;;;;;;13.95;6.65;;;14.20;86.00;;;;;;5071437;28;20085;-69
2022/03/26 11:15:59;;;;;;;18.75;9.60;;;14.20;80.50;;;;;;5069027;28;20144;-68
2022/03/26 11:18:51;;;;;;;21.80;10.48;;;14.20;84.80;;;;;;5082331;28;20519;-69
2022/03/26 11:21:37;;;;;;;16.10;7.20;;;14.40;87.30;;;;;;5073142;28;20082;-68
2022/03/26 11:24:09;;;;;;;14.68;7.18;;;14.30;80.50;;;;;;5070194;28;20085;-68
2022/03/26 11:27:09;;;;;;;14.15;6.28;;;14.10;84.10;;;;;;5081870;28;20048;-69
2022/03/26 11:30:03;;;;;;;20.92;7.65;;;14.20;82.50;;;;;;5063276;28;20110;-68
2022/03/26 11:32:43;;;;;;;16.10;7.10;;;14.10;83.70;;;;;;5071903;28;20040;-68
2022/03/26 11:35:17;;;;;;;18.20;7.35;;;14.20;81.50;;;;;;5077917;28;20032;-68
2022/03/26 11:37:53;;;;;;;11.65;6.90;;;14.20;83.60;;;;;;5070487;28;20071;-68
2022/03/26 11:40:43;;;;;;;12.20;5.72;;;14.50;80.50;;;;;;5059959;28;20123;-67
2022/03/26 11:43:10;;;;;;;16.90;8.38;;;14.30;80.20;;;;;;5073065;28;20054;-67
2022/03/26 11:51:23;;;;;;;14.70;7.95;;;14.10;85.90;;;;;;5060531;28;20075;-67
2022/03/26 11:53:56;;;;;;;17.33;8.55;;;14.40;81.30;;;;;;5060566;28;20048;-66
2022/03/26 11:56:27;;;;;;;20.48;9.38;;;14.50;81.30;;;;;;5061024;28;20475;-66
2022/03/26 11:59:18;;;;;;;15.20;9.15;;;14.60;82.20;;;;;;5080157;28;20115;-67
2022/03/26 12:01:46;;;;;;;16.13;9.38;;;14.60;79.60;;;;;;5083182;28;20036;-67
2022/03/26 12:04:17;;;;;;;22.63;10.80;;;14.60;82.00;;;;;;5062980;28;20059;-68
2022/03/26 12:06:51;;;;;;;15.93;9.55;;;14.70;82.50;;;;;;5058607;28;20040;-68
2022/03/26 12:09:34;;;;;;;17.17;9.48;;;14.70;81.60;;;;;;5081032;28;20043;-68
2022/03/26 12:12:07;;;;;;;18.23;10.07;;;14.90;82.90;;;;;;5082786;28;20527;-68
2022/03/26 12:14:34;;;;;;;20.35;11.02;;;14.70;83.50;;;;;;5078837;28;20693;-68
2022/03/26 12:17:00;;;;;;;18.33;10.23;;;14.60;82.80;;;;;;5077777;28;20101;-68
2022/03/26 12:19:50;;;;;;;17.85;9.73;;;14.20;83.50;;;;;;5078745;28;20427;-68
2022/03/26 12:22:28;;;;;;;22.17;10.57;;;13.90;85.90;;;;;;5082495;28;20048;-67
2022/03/26 12:25:03;;;;;;;16.90;9.88;;;14.00;86.60;;;;;;5061760;28;20082;-67
2022/03/26 12:27:29;;;;;;;17.13;8.23;;;14.10;84.90;;;;;;5067136;28;20093;-67
2022/03/26 12:29:55;;;;;;;;;;;14.30;82.70;;;;;;5087208;28;20632;-68
2022/03/26 12:32:28;;;;;;;19.55;7.55;;;14.40;83.00;;;;;;5085881;28;19916;-68
2022/03/26 12:35:05;;;;;;;13.40;7.82;;;14.50;82.90;;;;;;5064329;28;20040;-68
2022/03/26 12:37:35;;;;;;;18.88;8.50;;;14.20;83.20;;;;;;5065650;28;20045;-68
2022/03/26 12:40:04;;;;;;;14.43;8.27;;;14.30;84.20;;;;;;5066088;28;20041;-68
2022/03/26 12:42:29;;;;;;;13.40;7.03;;;14.30;85.80;;;;;;5066587;28;20041;-69
2022/03/26 12:44:55;;;;;;;;;;;14.40;82.10;;;;;;5076851;28;20055;-68
2022/03/26 12:47:24;;;;;;;13.80;6.50;;;14.40;81.60;;;;;;5072100;28;20069;-69
2022/03/26 12:49:54;;;;;;;18.80;8.98;;;14.40;77.70;;;;;;5067246;28;20120;-69
2022/03/26 12:52:22;;;;;;;14.48;8.20;;;14.40;80.10;;;;;;5065600;28;20744;-69
2022/03/26 12:54:56;;;;;;;15.10;8.32;;;14.40;80.90;;;;;;5087424;28;20040;-69